createdAt,value
2019-01-23T00:01:30.198Z,25.80
2019-01-23T00:03:59.465Z,24.50
2019-01-23T00:06:28.948Z,25.27
2019-01-23T00:08:58.247Z,24.50
2019-01-23T00:11:27.573Z,24.60
2019-01-23T00:13:56.954Z,27.20
2019-01-23T00:16:26.219Z,25.87
2019-01-23T00:18:55.434Z,24.07
2019-01-23T00:21:24.692Z,27.70
2019-01-23T00:23:54.021Z,27.33
2019-01-23T00:26:23.549Z,28.30
2019-01-23T00:28:52.763Z,25.47
2019-01-23T00:31:22.037Z,26.07
2019-01-23T00:33:51.273Z,25.60
2019-01-23T00:36:20.526Z,28.27
2019-01-23T00:38:49.847Z,26.27
2019-01-23T00:41:19.190Z,29.10
2019-01-23T00:43:48.442Z,25.60
2019-01-23T00:46:17.674Z,29.03
2019-01-23T00:48:46.992Z,28.30
2019-01-23T00:51:16.210Z,28.00
2019-01-23T00:53:45.507Z,28.83
2019-01-23T00:56:14.801Z,31.23
2019-01-23T00:58:49.194Z,30.43
2019-01-23T01:01:15.002Z,27.37
2019-01-23T01:03:44.377Z,30.73
2019-01-23T01:06:13.825Z,31.63
2019-01-23T01:08:43.066Z,31.57
2019-01-23T01:11:12.418Z,27.93
2019-01-23T01:13:41.613Z,31.43
2019-01-23T01:16:10.834Z,29.53
2019-01-23T01:18:40.204Z,29.97
2019-01-23T01:21:09.432Z,31.60
2019-01-23T01:23:38.682Z,31.40
2019-01-23T01:26:07.973Z,29.33
2019-01-23T01:28:37.267Z,29.07
2019-01-23T01:31:06.895Z,30.30
2019-01-23T01:33:36.194Z,30.23
2019-01-23T01:36:05.461Z,28.17
2019-01-23T01:38:34.762Z,27.97
2019-01-23T01:41:04.090Z,29.50
2019-01-23T01:43:33.340Z,28.47
2019-01-23T01:46:02.575Z,30.80
2019-01-23T01:48:32.001Z,30.60
2019-01-23T01:51:01.635Z,29.93
2019-01-23T01:53:30.898Z,31.40
2019-01-23T01:56:00.451Z,30.00
2019-01-23T01:58:29.712Z,32.30
2019-01-23T02:00:59.087Z,29.27
2019-01-23T02:03:28.537Z,29.00
2019-01-23T02:05:58.022Z,31.00
2019-01-23T02:08:27.243Z,29.20
2019-01-23T02:10:56.574Z,30.33
2019-01-23T02:13:25.800Z,30.10
2019-01-23T02:15:55.046Z,29.00
2019-01-23T02:18:24.288Z,30.03
2019-01-23T02:20:55.171Z,29.30
2019-01-23T02:23:24.457Z,28.17
2019-01-23T02:25:53.757Z,30.33
2019-01-23T02:28:22.982Z,29.33
2019-01-23T02:30:52.234Z,30.23
2019-01-23T02:33:21.579Z,30.27
2019-01-23T02:35:50.898Z,30.57
2019-01-23T02:38:20.133Z,30.27
2019-01-23T02:40:49.406Z,29.97
2019-01-23T02:43:18.766Z,29.73
2019-01-23T02:45:48.020Z,29.10
2019-01-23T02:48:17.257Z,29.77
2019-01-23T02:50:46.623Z,28.40
2019-01-23T02:53:15.953Z,30.63
2019-01-23T02:55:45.179Z,28.77
2019-01-23T02:58:14.500Z,28.13
2019-01-23T03:00:43.819Z,29.23
2019-01-23T03:03:13.077Z,30.00
2019-01-23T03:05:42.336Z,28.97
2019-01-23T03:08:11.588Z,28.83
2019-01-23T03:10:40.825Z,28.03
2019-01-23T03:13:10.078Z,28.90
2019-01-23T03:15:39.294Z,28.33
2019-01-23T03:18:08.721Z,30.13
2019-01-23T03:20:37.976Z,29.43
2019-01-23T03:23:07.376Z,29.03
2019-01-23T03:25:36.846Z,29.23
2019-01-23T03:28:06.127Z,27.30
2019-01-23T03:30:35.357Z,28.20
2019-01-23T03:33:04.763Z,28.97
2019-01-23T03:35:34.141Z,28.10
2019-01-23T03:38:03.370Z,29.03
2019-01-23T03:40:32.741Z,27.07
2019-01-23T03:43:01.995Z,26.90
2019-01-23T03:45:31.290Z,27.73
2019-01-23T03:48:00.637Z,27.47
2019-01-23T03:50:29.938Z,29.40
2019-01-23T03:52:59.267Z,29.20
2019-01-23T03:55:28.558Z,29.17
2019-01-23T03:57:57.798Z,30.30
2019-01-23T04:00:27.024Z,30.73
2019-01-23T04:02:56.272Z,30.03
2019-01-23T04:05:25.497Z,29.03
2019-01-23T04:07:54.731Z,29.73
2019-01-23T04:10:24.026Z,31.90
2019-01-23T04:12:53.260Z,29.20
2019-01-23T04:15:22.518Z,31.63
2019-01-23T04:17:51.886Z,32.33
2019-01-23T04:20:22.656Z,31.03
2019-01-23T04:22:51.878Z,30.70
2019-01-23T04:25:21.136Z,31.33
2019-01-23T04:27:50.456Z,34.20
2019-01-23T04:30:21.892Z,32.07
2019-01-23T04:32:51.206Z,34.60
2019-01-23T04:35:20.536Z,33.77
2019-01-23T04:37:49.782Z,34.03
2019-01-23T04:40:22.431Z,35.07
2019-01-23T04:42:51.786Z,33.50
2019-01-23T04:45:21.656Z,31.77
2019-01-23T04:47:50.939Z,31.10
2019-01-23T04:50:20.344Z,43.35
2019-01-23T04:53:20.579Z,34.77
2019-01-23T04:55:49.926Z,35.00
2019-01-23T04:58:19.161Z,34.27
2019-01-23T05:00:48.460Z,35.17
2019-01-23T05:03:17.739Z,35.10
2019-01-23T05:05:47.010Z,32.80
2019-01-23T05:08:16.262Z,34.50
2019-01-23T05:10:45.611Z,34.60
2019-01-23T05:13:14.943Z,32.57
2019-01-23T05:15:44.351Z,35.70
2019-01-23T05:18:13.693Z,34.23
2019-01-23T05:20:42.931Z,37.53
2019-01-23T05:23:12.220Z,35.40
2019-01-23T05:25:41.558Z,38.87
2019-01-23T05:28:10.900Z,35.83
2019-01-23T05:30:40.157Z,38.13
2019-01-23T05:33:09.418Z,38.20
2019-01-23T05:35:38.631Z,42.20
2019-01-23T05:38:07.897Z,36.17
2019-01-23T05:40:37.196Z,35.33
2019-01-23T05:43:06.549Z,39.00
2019-01-23T05:45:37.934Z,37.23
2019-01-23T05:48:07.240Z,38.33
2019-01-23T05:50:36.517Z,36.57
2019-01-23T05:53:05.761Z,43.07
2019-01-23T05:55:35.025Z,38.17
2019-01-23T05:58:04.597Z,38.63
2019-01-23T06:00:33.847Z,38.73
2019-01-23T06:03:06.168Z,38.97
2019-01-23T06:05:35.485Z,38.97
2019-01-23T06:08:04.811Z,40.47
2019-01-23T06:10:34.054Z,40.30
2019-01-23T06:13:03.320Z,37.80
2019-01-23T06:15:32.599Z,37.33
2019-01-23T06:18:01.847Z,38.92
2019-01-23T06:20:31.122Z,38.20
2019-01-23T06:23:00.353Z,38.83
2019-01-23T06:25:29.648Z,36.47
2019-01-23T06:27:59.020Z,38.53
2019-01-23T06:30:28.314Z,38.30
2019-01-23T06:32:57.580Z,35.77
2019-01-23T06:35:26.834Z,37.83
2019-01-23T06:37:56.112Z,37.80
2019-01-23T06:40:25.457Z,55.45
2019-01-23T06:42:54.766Z,41.80
2019-01-23T06:45:24.001Z,39.53
2019-01-23T06:47:53.278Z,39.63
2019-01-23T06:50:23.111Z,38.40
2019-01-23T06:52:52.413Z,40.63
2019-01-23T06:55:21.726Z,39.50
2019-01-23T06:57:51.036Z,35.43
2019-01-23T07:00:25.029Z,38.90
2019-01-23T07:02:54.358Z,38.23
2019-01-23T07:05:23.910Z,38.27
2019-01-23T07:07:53.293Z,38.57
2019-01-23T07:10:26.198Z,36.30
2019-01-23T07:12:55.452Z,37.77
2019-01-23T07:15:24.722Z,41.27
2019-01-23T07:17:53.970Z,38.43
2019-01-23T07:20:24.953Z,38.17
2019-01-23T07:22:54.202Z,40.37
2019-01-23T07:25:23.842Z,43.87
2019-01-23T07:27:53.120Z,39.17
2019-01-23T07:30:28.147Z,41.17
2019-01-23T07:32:57.409Z,40.70
2019-01-23T07:35:26.793Z,41.13
2019-01-23T07:37:56.065Z,41.37
2019-01-23T07:40:25.379Z,41.40
2019-01-23T07:42:54.699Z,42.17
2019-01-23T07:45:24.258Z,44.27
2019-01-23T07:47:53.534Z,43.13
2019-01-23T07:50:23.182Z,45.70
2019-01-23T07:52:52.600Z,47.47
2019-01-23T07:55:22.387Z,47.27
2019-01-23T07:57:51.719Z,45.67
2019-01-23T08:00:22.113Z,47.43
2019-01-23T08:02:51.899Z,47.97
2019-01-23T08:05:23.114Z,47.83
2019-01-23T08:07:52.526Z,49.13
2019-01-23T08:10:21.967Z,47.00
2019-01-23T08:12:51.259Z,50.00
2019-01-23T08:15:32.087Z,47.93
2019-01-23T08:18:01.338Z,51.87
2019-01-23T08:20:30.735Z,48.20
2019-01-23T08:23:00.259Z,48.43
2019-01-23T08:25:29.529Z,50.50
2019-01-23T08:27:59.074Z,48.37
2019-01-23T08:30:28.384Z,45.23
2019-01-23T08:32:57.701Z,49.33
2019-01-23T08:35:27.350Z,42.27
2019-01-23T08:37:56.634Z,49.90
2019-01-23T08:40:25.886Z,46.23
2019-01-23T08:42:55.110Z,51.30
2019-01-23T08:45:24.380Z,52.03
2019-01-23T08:47:53.759Z,60.90
2019-01-23T08:50:25.721Z,63.70
2019-01-23T08:52:55.045Z,54.87
2019-01-23T08:55:24.367Z,53.97
2019-01-23T08:57:53.678Z,51.10
2019-01-23T09:00:23.301Z,49.97
2019-01-23T09:02:52.540Z,50.87
2019-01-23T09:05:21.816Z,53.17
2019-01-23T09:07:51.142Z,47.57
2019-01-23T09:10:21.935Z,51.53
2019-01-23T09:12:51.256Z,48.67
2019-01-23T09:15:20.545Z,48.33
2019-01-23T09:17:49.796Z,46.20
2019-01-23T09:20:19.157Z,46.83
2019-01-23T09:22:48.442Z,50.77
2019-01-23T09:25:19.390Z,47.37
2019-01-23T09:27:48.618Z,53.47
2019-01-23T09:30:26.827Z,54.33
2019-01-23T09:33:37.363Z,60.43
2019-01-23T09:36:40.305Z,58.73
2019-01-23T09:39:56.826Z,52.27
2019-01-23T09:43:10.280Z,54.47
2019-01-23T09:46:21.048Z,55.47
2019-01-23T09:49:03.261Z,46.20
2019-01-23T09:51:59.789Z,43.83
2019-01-23T09:54:29.049Z,44.93
2019-01-23T09:56:58.418Z,45.93
2019-01-23T09:59:27.694Z,48.97
2019-01-23T10:01:56.936Z,48.93
2019-01-23T10:04:26.155Z,55.83
2019-01-23T10:06:55.433Z,51.67
2019-01-23T10:09:24.725Z,59.23
2019-01-23T10:11:54.019Z,49.57
2019-01-23T10:14:23.296Z,51.77
2019-01-23T10:16:52.561Z,51.63
2019-01-23T10:19:21.790Z,55.10
2019-01-23T10:21:51.066Z,52.37
2019-01-23T10:24:20.302Z,47.47
2019-01-23T10:26:49.591Z,49.20
2019-01-23T10:29:18.924Z,51.87
2019-01-23T10:31:48.268Z,47.20
2019-01-23T10:34:17.617Z,46.47
2019-01-23T10:36:46.959Z,46.93
2019-01-23T10:39:16.198Z,47.20
2019-01-23T10:41:45.473Z,44.63
2019-01-23T10:44:14.741Z,44.37
2019-01-23T10:46:44.141Z,41.80
2019-01-23T10:49:13.530Z,43.90
2019-01-23T10:51:42.770Z,44.83
2019-01-23T10:54:12.018Z,46.07
2019-01-23T10:56:41.294Z,45.80
2019-01-23T10:59:10.523Z,45.50
2019-01-23T11:01:39.788Z,44.60
2019-01-23T11:04:09.089Z,43.00
2019-01-23T11:06:38.341Z,44.30
2019-01-23T11:09:09.073Z,42.07
2019-01-23T11:11:38.440Z,44.37
2019-01-23T11:14:07.682Z,45.57
2019-01-23T11:16:36.937Z,35.33
2019-01-23T11:19:06.199Z,43.80
2019-01-23T11:21:35.435Z,44.37
2019-01-23T11:24:04.815Z,43.57
2019-01-23T11:26:34.173Z,44.20
2019-01-23T11:29:03.458Z,43.20
2019-01-23T11:31:32.701Z,55.58
2019-01-23T11:34:02.008Z,45.63
2019-01-23T11:36:31.350Z,45.23
2019-01-23T11:39:00.674Z,45.93
2019-01-23T11:41:29.932Z,45.77
2019-01-23T11:43:59.254Z,43.70
2019-01-23T11:46:28.578Z,43.03
2019-01-23T11:48:57.854Z,51.17
2019-01-23T11:51:27.078Z,43.53
2019-01-23T11:53:56.393Z,44.13
2019-01-23T11:56:25.646Z,42.67
2019-01-23T11:58:54.889Z,44.40
2019-01-23T12:01:27.619Z,44.07
2019-01-23T12:03:55.666Z,44.67
2019-01-23T12:06:25.015Z,46.00
2019-01-23T12:08:54.262Z,42.90
2019-01-23T12:11:23.566Z,42.67
2019-01-23T12:13:52.929Z,44.63
2019-01-23T12:16:22.291Z,38.90
2019-01-23T12:18:51.611Z,41.43
2019-01-23T12:21:20.937Z,43.20
2019-01-23T12:23:50.305Z,43.60
2019-01-23T12:26:19.646Z,41.43
2019-01-23T12:28:48.922Z,41.60
2019-01-23T12:31:18.194Z,42.27
2019-01-23T12:33:47.610Z,38.90
2019-01-23T12:36:16.832Z,35.70
2019-01-23T12:38:46.104Z,39.80
2019-01-23T12:41:15.374Z,37.97
2019-01-23T12:43:44.602Z,37.33
2019-01-23T12:46:13.885Z,41.13
2019-01-23T12:48:43.141Z,36.40
2019-01-23T12:51:12.411Z,34.40
2019-01-23T12:53:41.700Z,35.40
2019-01-23T12:56:11.005Z,40.07
2019-01-23T12:58:40.298Z,38.13
2019-01-23T13:01:09.549Z,37.60
2019-01-23T13:03:38.806Z,34.67
2019-01-23T13:06:08.180Z,51.00
2019-01-23T13:08:37.539Z,46.57
2019-01-23T13:11:06.804Z,44.10
2019-01-23T13:13:36.050Z,39.27
2019-01-23T13:16:05.325Z,39.93
2019-01-23T13:18:34.667Z,41.53
2019-01-23T13:21:04.017Z,44.40
2019-01-23T13:23:33.281Z,41.53
2019-01-23T13:26:02.550Z,42.77
2019-01-23T13:28:31.886Z,41.73
2019-01-23T13:31:01.206Z,43.03
2019-01-23T13:33:30.548Z,43.27
2019-01-23T13:35:59.841Z,51.90
2019-01-23T13:38:30.006Z,53.03
2019-01-23T13:40:59.247Z,58.63
2019-01-23T13:43:28.479Z,41.43
2019-01-23T13:45:58.008Z,52.00
2019-01-23T13:48:27.483Z,38.63
2019-01-23T13:50:57.276Z,43.37
2019-01-23T13:53:26.652Z,44.90
2019-01-23T13:55:55.952Z,43.63
2019-01-23T13:58:25.242Z,46.00
2019-01-23T14:00:54.522Z,47.97
2019-01-23T14:03:23.789Z,42.80
2019-01-23T14:05:53.307Z,44.43
2019-01-23T14:08:22.597Z,44.73
2019-01-23T14:10:51.937Z,46.60
2019-01-23T14:13:21.660Z,45.33
2019-01-23T14:15:50.926Z,55.87
2019-01-23T14:18:20.205Z,47.70
2019-01-23T14:20:49.639Z,38.10
2019-01-23T14:23:18.954Z,45.23
2019-01-23T14:25:48.481Z,44.37
2019-01-23T14:28:17.834Z,60.55
2019-01-23T14:30:47.235Z,48.23
2019-01-23T14:33:17.265Z,46.93
2019-01-23T14:35:47.584Z,48.80
2019-01-23T14:38:17.926Z,44.57
2019-01-23T14:40:47.202Z,45.50
2019-01-23T14:43:16.619Z,44.00
2019-01-23T14:45:45.969Z,45.43
2019-01-23T14:48:15.232Z,43.87
2019-01-23T14:50:44.489Z,46.43
2019-01-23T14:53:14.602Z,46.77
2019-01-23T14:55:43.876Z,47.13
2019-01-23T14:58:13.181Z,49.10
2019-01-23T15:00:42.509Z,49.50
2019-01-23T15:03:11.750Z,52.53
2019-01-23T15:05:41.020Z,50.40
2019-01-23T15:08:10.346Z,52.20
2019-01-23T15:10:39.578Z,53.17
2019-01-23T15:13:08.869Z,47.97
2019-01-23T15:15:38.122Z,52.33
2019-01-23T15:18:07.413Z,51.00
2019-01-23T15:20:41.401Z,51.20
2019-01-23T15:23:10.682Z,52.70
2019-01-23T15:25:40.046Z,56.13
2019-01-23T15:28:09.286Z,55.03
2019-01-23T15:30:38.627Z,54.93
2019-01-23T15:33:07.899Z,53.17
2019-01-23T15:35:38.725Z,54.70
2019-01-23T15:38:08.037Z,57.87
2019-01-23T15:40:38.790Z,57.23
2019-01-23T15:43:08.031Z,58.60
2019-01-23T15:45:37.350Z,57.87
2019-01-23T15:48:06.605Z,58.23
2019-01-23T15:50:35.956Z,57.97
2019-01-23T15:53:05.218Z,55.80
2019-01-23T15:55:34.454Z,58.77
2019-01-23T15:58:04.779Z,56.80
2019-01-23T16:00:34.646Z,60.00
2019-01-23T16:03:03.985Z,63.67
2019-01-23T16:05:33.358Z,65.13
2019-01-23T16:08:02.794Z,63.90
2019-01-23T16:10:47.039Z,63.03
2019-01-23T16:16:36.694Z,60.33
2019-01-23T16:19:06.104Z,53.13
2019-01-23T16:21:35.367Z,63.70
2019-01-23T16:24:04.707Z,68.30
2019-01-23T16:26:35.115Z,60.97
2019-01-23T16:29:04.461Z,65.17
2019-01-23T16:31:33.823Z,70.43
2019-01-23T16:34:03.286Z,67.57
2019-01-23T16:36:32.558Z,66.53
2019-01-23T16:39:01.818Z,62.20
2019-01-23T16:41:32.090Z,78.23
2019-01-23T16:44:01.609Z,71.23
2019-01-23T16:46:30.855Z,60.47
2019-01-23T16:49:00.220Z,67.07
2019-01-23T16:51:29.533Z,78.43
2019-01-23T16:53:58.797Z,81.95
2019-01-23T16:56:28.077Z,72.67
2019-01-23T16:58:57.597Z,68.63
2019-01-23T17:01:27.167Z,64.80
2019-01-23T17:03:56.730Z,56.20
2019-01-23T17:06:26.094Z,62.17
2019-01-23T17:08:55.610Z,69.63
2019-01-23T17:11:28.487Z,65.23
2019-01-23T17:13:57.989Z,52.83
2019-01-23T17:16:27.591Z,67.30
2019-01-23T17:18:56.834Z,66.70
2019-01-23T17:21:26.174Z,66.40
2019-01-23T17:23:55.526Z,69.17
2019-01-23T17:26:43.899Z,70.90
2019-01-23T17:29:13.227Z,64.60
2019-01-23T17:31:44.228Z,68.40
2019-01-23T17:34:13.584Z,48.83
2019-01-23T17:36:42.884Z,68.27
2019-01-23T17:39:12.242Z,63.23
2019-01-23T17:41:41.582Z,66.33
2019-01-23T17:44:11.300Z,65.87
2019-01-23T17:46:42.585Z,69.33
2019-01-23T17:49:12.922Z,66.60
2019-01-23T17:51:42.598Z,67.30
2019-01-23T17:54:11.895Z,64.87
2019-01-23T17:56:41.406Z,60.20
2019-01-23T17:59:10.808Z,59.40
2019-01-23T18:01:40.183Z,55.13
2019-01-23T18:04:09.520Z,64.07
2019-01-23T18:06:38.913Z,69.03
2019-01-23T18:09:09.879Z,70.67
2019-01-23T18:11:39.323Z,68.53
2019-01-23T18:14:08.584Z,52.97
2019-01-23T18:16:38.024Z,59.80
2019-01-23T18:19:07.472Z,52.87
2019-01-23T18:21:37.206Z,52.00
2019-01-23T18:24:06.479Z,49.73
2019-01-23T18:26:37.678Z,46.43
2019-01-23T18:29:06.971Z,50.33
2019-01-23T18:32:01.780Z,42.83
2019-01-23T18:35:26.725Z,42.50
2019-01-23T18:38:24.826Z,34.93
2019-01-23T18:41:36.118Z,40.20
2019-01-23T18:44:48.437Z,44.63
2019-01-23T18:47:57.328Z,29.03
2019-01-23T18:51:03.811Z,56.83
2019-01-23T18:53:33.251Z,41.83
2019-01-23T18:56:04.497Z,38.77
2019-01-23T18:58:33.923Z,38.60
2019-01-23T19:01:03.533Z,29.90
2019-01-23T19:03:32.998Z,37.67
2019-01-23T19:06:04.219Z,39.17
2019-01-23T19:08:33.699Z,30.90
2019-01-23T19:11:03.259Z,33.40
2019-01-23T19:13:32.651Z,31.60
2019-01-23T19:16:02.359Z,37.10
2019-01-23T19:18:31.705Z,38.27
2019-01-23T19:21:01.038Z,34.63
2019-01-23T19:23:30.435Z,37.50
2019-01-23T19:25:59.831Z,39.33
2019-01-23T19:28:30.460Z,37.70
2019-01-23T19:30:59.861Z,37.03
2019-01-23T19:33:30.709Z,34.10
2019-01-23T19:35:59.969Z,34.60
2019-01-23T19:38:29.227Z,33.10
2019-01-23T19:40:58.761Z,32.60
2019-01-23T19:43:28.082Z,37.57
2019-01-23T19:45:57.546Z,33.23
2019-01-23T19:48:26.842Z,32.73
2019-01-23T19:50:56.114Z,34.50
2019-01-23T19:53:25.522Z,34.33
2019-01-23T19:55:54.872Z,32.77
2019-01-23T19:58:24.269Z,43.05
2019-01-23T20:00:53.592Z,35.03
2019-01-23T20:03:22.896Z,34.77
2019-01-23T20:05:52.350Z,31.30
2019-01-23T20:08:21.710Z,33.93
2019-01-23T20:10:51.241Z,32.87
2019-01-23T20:13:20.550Z,33.83
2019-01-23T20:15:51.542Z,32.63
2019-01-23T20:18:20.868Z,34.07
2019-01-23T20:20:50.263Z,33.47
2019-01-23T20:23:19.557Z,38.63
2019-01-23T20:25:49.066Z,35.37
2019-01-23T20:28:18.486Z,32.70
2019-01-23T20:30:49.548Z,33.50
2019-01-23T20:33:18.918Z,35.47
2019-01-23T20:35:48.450Z,29.33
2019-01-23T20:38:17.941Z,31.33
2019-01-23T20:40:47.448Z,31.40
2019-01-23T20:43:16.869Z,33.87
2019-01-23T20:45:46.380Z,31.87
2019-01-23T20:48:47.745Z,30.27
2019-01-23T20:51:17.338Z,32.50
2019-01-23T20:54:12.760Z,31.80
2019-01-23T20:56:42.208Z,31.33
2019-01-23T20:59:11.783Z,33.33
2019-01-23T21:01:45.781Z,38.20
2019-01-23T21:04:15.203Z,33.77
2019-01-23T21:06:44.680Z,32.40
2019-01-23T21:09:16.419Z,28.03
2019-01-23T21:11:45.977Z,31.60
2019-01-23T21:14:18.623Z,31.77
2019-01-23T21:16:48.599Z,29.80
2019-01-23T21:19:18.160Z,30.70
2019-01-23T21:21:48.080Z,33.23
2019-01-23T21:24:17.832Z,32.30
2019-01-23T21:26:47.241Z,29.93
2019-01-23T21:29:16.826Z,32.93
2019-01-23T21:31:46.227Z,35.52
2019-01-23T21:34:15.787Z,31.37
2019-01-23T21:36:46.458Z,32.73
2019-01-23T21:39:34.445Z,34.13
2019-01-23T21:42:40.905Z,33.70
2019-01-23T21:45:12.019Z,31.50
2019-01-23T21:47:41.495Z,34.67
2019-01-23T21:50:13.849Z,33.47
2019-01-23T21:52:47.642Z,27.63
2019-01-23T21:55:18.733Z,28.20
2019-01-23T21:57:48.278Z,27.37
2019-01-23T22:00:54.017Z,28.60
2019-01-23T22:03:23.384Z,28.73
2019-01-23T22:05:53.178Z,30.33
2019-01-23T22:08:23.064Z,28.30
2019-01-23T22:10:52.422Z,28.20
2019-01-23T22:13:22.224Z,28.83
2019-01-23T22:15:51.784Z,26.57
2019-01-23T22:18:21.490Z,28.37
2019-01-23T22:20:51.213Z,29.83
2019-01-23T22:23:20.659Z,27.20
2019-01-23T22:26:12.517Z,29.47
2019-01-23T22:30:00.664Z,26.77
2019-01-23T22:32:30.754Z,26.97
2019-01-23T22:35:00.092Z,25.27
2019-01-23T22:37:30.249Z,26.80
2019-01-23T22:40:00.227Z,27.80
2019-01-23T22:42:30.263Z,26.80
2019-01-23T22:48:01.742Z,23.70
2019-01-23T22:50:31.900Z,24.47
2019-01-23T22:53:05.133Z,27.17
2019-01-23T22:55:34.873Z,25.50
2019-01-23T22:58:05.221Z,26.40
2019-01-23T23:00:43.786Z,26.00
2019-01-23T23:03:16.491Z,27.07
2019-01-23T23:06:05.109Z,25.07
2019-01-23T23:08:35.016Z,25.00
2019-01-23T23:11:50.173Z,26.67
2019-01-23T23:14:19.948Z,26.23
2019-01-23T23:16:49.434Z,25.53
2019-01-23T23:19:19.192Z,27.43
2019-01-23T23:21:48.719Z,27.23
2019-01-23T23:24:18.242Z,27.70
2019-01-23T23:26:47.654Z,29.43
2019-01-23T23:29:19.154Z,28.43
2019-01-23T23:31:48.812Z,27.87
2019-01-23T23:34:18.334Z,27.20
2019-01-23T23:36:47.769Z,27.17
2019-01-23T23:39:21.830Z,27.63
2019-01-23T23:41:51.062Z,27.27
2019-01-23T23:44:20.371Z,27.57
2019-01-23T23:46:50.843Z,26.53
2019-01-23T23:49:20.237Z,26.27
2019-01-23T23:51:49.515Z,26.57
2019-01-23T23:54:20.066Z,27.20
2019-01-23T23:56:49.382Z,27.30
2019-01-23T23:59:18.782Z,26.37
